Time;durP1;ratioP1;P1;durP2;ratioP2;P2;SDS_P1;SDS_P2;PMS_P1;PMS_P2;Temp;Humidity;BMP_temperature;BMP_pressure;BME280_temperature;BME280_humidity;BME280_pressure;Samples;Min_cycle;Max_cycle;Signal;HPM_P1;HPM_P2
2021/12/08 00:02:17;;;;;;;7.97;1.38;;;;;;;;;;5030532;28;20456;-70
2021/12/08 00:04:42;;;;;;;7.15;1.27;;;;;;;;;;5029309;28;20033;-68
2021/12/08 00:07:08;;;;;;;7.10;1.73;;;;;;;;;;5029904;28;20013;-74
2021/12/08 00:14:55;;;;;;;2.50;1.02;;;;;;;;;;5021085;28;20393;-72
2021/12/08 00:17:20;;;;;;;9.95;2.05;;;;;;;;;;5027921;28;20025;-75
2021/12/08 00:19:45;;;;;;;13.25;1.67;;;;;;;;;;5031729;28;20491;-70
2021/12/08 00:22:11;;;;;;;3.40;1.42;;;;;;;;;;5029377;28;20076;-72
2021/12/08 00:24:37;;;;;;;5.32;1.48;;;;;;;;;;5012204;28;20498;-70
2021/12/08 00:27:02;;;;;;;6.28;1.58;;;;;;;;;;5027695;28;20023;-70
2021/12/08 00:29:28;;;;;;;4.97;1.15;;;;;;;;;;5031920;28;20101;-70
2021/12/08 00:31:53;;;;;;;3.92;1.63;;;;;;;;;;5032007;28;20021;-71
2021/12/08 00:34:18;;;;;;;3.78;1.08;;;;;;;;;;5031238;28;20025;-73
2021/12/08 00:36:48;;;;;;;3.17;1.17;;;;;;;;;;5030305;28;20088;-70
2021/12/08 00:39:13;;;;;;;8.15;2.25;;;;;;;;;;5032073;28;20558;-75
2021/12/08 00:41:39;;;;;;;8.30;1.85;;;;;;;;;;5031633;28;20033;-70
2021/12/08 00:44:04;;;;;;;2.22;1.10;;;;;;;;;;5031479;28;20022;-70
2021/12/08 00:46:29;;;;;;;2.83;0.93;;;;;;;;;;5031637;28;20057;-74
2021/12/08 00:48:54;;;;;;;8.35;1.52;;;;;;;;;;5031787;28;20022;-70
2021/12/08 00:51:20;;;;;;;2.28;0.90;;;;;;;;;;5031848;28;20036;-72
2021/12/08 00:53:45;;;;;;;15.50;1.95;;;;;;;;;;5031745;28;20493;-70
2021/12/08 00:56:11;;;;;;;2.05;1.05;;;;;;;;;;5031343;28;20037;-70
2021/12/08 00:58:36;;;;;;;2.47;1.13;;;;;;;;;;5031467;28;20103;-73
2021/12/08 01:01:03;;;;;;;6.82;2.10;;;;;;;;;;5030761;28;20121;-70
2021/12/08 01:03:28;;;;;;;5.38;0.90;;;;;;;;;;5031765;28;20022;-71
2021/12/08 01:05:54;;;;;;;8.23;1.73;;;;;;;;;;5031142;28;20104;-70
2021/12/08 01:08:20;;;;;;;3.28;1.55;;;;;;;;;;5031126;28;20025;-70
2021/12/08 01:10:47;;;;;;;1.10;1.00;;;;;;;;;;5029997;28;20072;-70
2021/12/08 01:13:14;;;;;;;4.28;1.48;;;;;;;;;;5030917;28;20048;-70
2021/12/08 01:15:41;;;;;;;8.68;2.45;;;;;;;;;;5029733;28;20017;-70
2021/12/08 01:18:06;;;;;;;9.52;0.98;;;;;;;;;;5025301;28;20026;-72
2021/12/08 01:20:32;;;;;;;3.10;1.15;;;;;;;;;;5016240;28;20021;-73
2021/12/08 01:22:57;;;;;;;4.93;1.63;;;;;;;;;;5023728;28;20021;-70
2021/12/08 01:25:22;;;;;;;6.45;1.50;;;;;;;;;;5011493;28;20018;-71
2021/12/08 01:27:47;;;;;;;2.03;0.70;;;;;;;;;;5031254;28;20026;-70
2021/12/08 01:30:13;;;;;;;6.15;1.45;;;;;;;;;;5030245;28;20027;-75
2021/12/08 01:32:38;;;;;;;1.48;0.77;;;;;;;;;;5031319;28;20390;-70
2021/12/08 01:35:04;;;;;;;3.25;0.77;;;;;;;;;;5030728;28;20030;-73
2021/12/08 01:37:29;;;;;;;6.70;1.65;;;;;;;;;;5030981;28;20033;-70
2021/12/08 01:39:55;;;;;;;2.83;1.55;;;;;;;;;;5031309;28;20029;-70
2021/12/08 01:42:29;;;;;;;5.10;2.33;;;;;;;;;;5030427;28;20026;-70
2021/12/08 01:47:38;;;;;;;6.97;2.10;;;;;;;;;;5029801;28;20406;-71
2021/12/08 01:50:04;;;;;;;4.63;2.00;;;;;;;;;;5030257;28;20021;-71
2021/12/08 01:52:29;;;;;;;8.63;2.25;;;;;;;;;;5030270;28;20021;-70
2021/12/08 01:54:54;;;;;;;2.25;0.93;;;;;;;;;;5030678;28;20033;-73
2021/12/08 01:57:20;;;;;;;4.10;1.45;;;;;;;;;;5012626;28;20040;-73
2021/12/08 01:59:45;;;;;;;2.97;1.40;;;;;;;;;;5030144;28;20117;-73
2021/12/08 02:02:10;;;;;;;9.82;1.10;;;;;;;;;;5029811;28;20520;-72
2021/12/08 02:04:36;;;;;;;8.80;1.55;;;;;;;;;;5030449;28;20060;-72
2021/12/08 02:07:01;;;;;;;2.10;1.17;;;;;;;;;;5030003;28;20025;-71
2021/12/08 02:09:27;;;;;;;4.10;1.27;;;;;;;;;;5030507;28;20068;-70
2021/12/08 02:11:55;;;;;;;2.42;1.35;;;;;;;;;;5030243;28;20020;-70
2021/12/08 02:14:20;;;;;;;4.90;1.40;;;;;;;;;;5030198;28;20116;-72
2021/12/08 02:16:46;;;;;;;4.78;0.95;;;;;;;;;;5029208;28;20434;-70
2021/12/08 02:19:12;;;;;;;3.70;1.73;;;;;;;;;;5030422;28;20029;-70
2021/12/08 02:21:41;;;;;;;3.10;1.00;;;;;;;;;;5030649;28;20029;-71
2021/12/08 02:24:08;;;;;;;1.70;1.17;;;;;;;;;;5028571;28;20388;-75
2021/12/08 02:26:34;;;;;;;2.13;1.20;;;;;;;;;;5027292;28;20026;-70
2021/12/08 02:29:05;;;;;;;1.10;0.50;;;;;;;;;;5034185;28;20021;-70
2021/12/08 02:32:00;;;;;;;1.27;0.52;;;;;;;;;;5034245;28;20025;-70
2021/12/08 02:48:05;;;;;;;4.22;1.20;;;;;;;;;;5034300;28;20032;-70
2021/12/08 02:50:32;;;;;;;4.40;1.40;;;;;;;;;;5033664;28;20101;-70
2021/12/08 02:52:58;;;;;;;1.35;0.70;;;;;;;;;;5034030;28;20468;-71
2021/12/08 02:55:24;;;;;;;1.70;0.55;;;;;;;;;;5033448;28;20022;-70
2021/12/08 02:57:50;;;;;;;3.55;1.00;;;;;;;;;;5033672;28;20032;-72
2021/12/08 03:00:17;;;;;;;0.90;0.68;;;;;;;;;;5033507;28;20017;-70
2021/12/08 03:02:42;;;;;;;1.30;0.55;;;;;;;;;;5033585;28;20105;-72
2021/12/08 03:05:07;;;;;;;1.08;0.80;;;;;;;;;;5033457;28;20100;-70
2021/12/08 03:07:33;;;;;;;2.60;0.82;;;;;;;;;;5033529;28;20441;-70
2021/12/08 03:10:06;;;;;;;2.60;1.50;;;;;;;;;;5033672;28;20021;-73
2021/12/08 03:12:31;;;;;;;3.10;0.45;;;;;;;;;;5058642;22;20105;-67
2021/12/08 03:14:57;;;;;;;2.20;1.00;;;;;;;;;;5052885;28;20112;-67
2021/12/08 03:17:22;;;;;;;5.32;1.20;;;;;;;;;;5052406;28;20095;-68
2021/12/08 03:19:48;;;;;;;1.20;0.63;;;;;;;;;;5053579;28;20024;-67
2021/12/08 03:22:13;;;;;;;3.22;0.77;;;;;;;;;;5053627;28;20094;-67
2021/12/08 03:24:42;;;;;;;3.28;0.98;;;;;;;;;;5053027;28;20063;-67
2021/12/08 03:27:14;;;;;;;1.40;0.70;;;;;;;;;;5033358;28;20588;-67
2021/12/08 03:29:55;;;;;;;8.25;0.93;;;;;;;;;;5033428;28;20018;-66
2021/12/08 03:32:41;;;;;;;4.90;0.63;;;;;;;;;;5052841;28;20024;-67
2021/12/08 03:35:08;;;;;;;1.88;0.88;;;;;;;;;;5052954;28;20013;-67
2021/12/08 03:37:36;;;;;;;1.75;0.93;;;;;;;;;;5035047;28;20050;-66
2021/12/08 03:40:05;;;;;;;3.03;1.05;;;;;;;;;;5052832;28;20032;-67
2021/12/08 03:42:33;;;;;;;2.38;0.47;;;;;;;;;;5052646;28;20104;-67
2021/12/08 03:45:01;;;;;;;2.28;1.02;;;;;;;;;;5053027;28;20438;-67
2021/12/08 03:47:29;;;;;;;4.95;0.68;;;;;;;;;;5035021;28;20017;-67
2021/12/08 03:49:56;;;;;;;1.45;0.82;;;;;;;;;;5053106;28;20021;-68
2021/12/08 03:52:21;;;;;;;3.30;1.17;;;;;;;;;;5052620;28;20082;-67
2021/12/08 03:54:46;;;;;;;2.83;1.17;;;;;;;;;;5051060;28;20009;-67
2021/12/08 03:57:11;;;;;;;1.60;0.80;;;;;;;;;;5052545;28;20020;-67
2021/12/08 03:59:37;;;;;;;1.52;0.77;;;;;;;;;;5052683;28;20413;-67
2021/12/08 04:02:03;;;;;;;1.98;0.85;;;;;;;;;;5052152;28;20116;-66
2021/12/08 04:04:30;;;;;;;2.38;0.60;;;;;;;;;;5052289;28;20321;-67
2021/12/08 04:06:57;;;;;;;0.75;0.75;;;;;;;;;;5051891;28;20028;-67
2021/12/08 04:09:31;;;;;;;1.17;1.02;;;;;;;;;;5052339;28;20041;-67
2021/12/08 04:11:56;;;;;;;2.88;0.88;;;;;;;;;;5052255;28;20028;-67
2021/12/08 04:14:23;;;;;;;2.38;0.93;;;;;;;;;;5051956;28;20029;-67
2021/12/08 04:16:51;;;;;;;2.85;0.77;;;;;;;;;;5052136;28;20100;-67
2021/12/08 04:19:17;;;;;;;0.93;0.68;;;;;;;;;;5060755;28;20534;-67
2021/12/08 04:21:43;;;;;;;4.43;1.30;;;;;;;;;;5061730;28;20052;-66
2021/12/08 04:24:09;;;;;;;5.32;0.95;;;;;;;;;;5044369;28;20389;-67
2021/12/08 04:26:36;;;;;;;2.55;0.90;;;;;;;;;;5051994;28;20059;-67
2021/12/08 04:29:03;;;;;;;0.95;0.82;;;;;;;;;;5051789;28;20025;-67
2021/12/08 04:31:30;;;;;;;3.15;0.82;;;;;;;;;;5051953;28;20323;-67
2021/12/08 04:34:00;;;;;;;2.50;0.93;;;;;;;;;;5051687;28;20039;-68
2021/12/08 04:36:26;;;;;;;1.73;1.00;;;;;;;;;;5051138;28;20020;-66
2021/12/08 04:38:56;;;;;;;8.45;1.50;;;;;;;;;;5052015;28;20021;-67
2021/12/08 04:41:28;;;;;;;2.70;1.02;;;;;;;;;;5051661;28;20098;-67
2021/12/08 04:44:08;;;;;;;2.22;1.02;;;;;;;;;;5051436;28;20021;-68
2021/12/08 04:49:26;;;;;;;3.33;1.20;;;;;;;;;;5051714;28;20084;-67
2021/12/08 05:08:14;;;;;;;1.40;0.75;;;;;;;;;;5051054;28;20055;-67
2021/12/08 05:10:39;;;;;;;2.35;0.80;;;;;;;;;;5050902;28;20100;-67
2021/12/08 05:13:06;;;;;;;2.70;0.95;;;;;;;;;;5050943;28;20124;-67
2021/12/08 05:15:34;;;;;;;10.35;1.95;;;;;;;;;;5050858;28;20025;-67
2021/12/08 05:18:03;;;;;;;2.58;1.10;;;;;;;;;;5050091;28;20190;-67
2021/12/08 05:20:34;;;;;;;1.10;0.85;;;;;;;;;;5033081;28;20473;-67
2021/12/08 05:23:03;;;;;;;4.13;1.42;;;;;;;;;;5046605;28;20104;-67
2021/12/08 05:25:30;;;;;;;5.00;1.08;;;;;;;;;;5051239;28;20147;-67
2021/12/08 05:27:57;;;;;;;3.42;1.13;;;;;;;;;;5050985;28;20055;-67
2021/12/08 05:30:22;;;;;;;3.40;1.33;;;;;;;;;;5050884;28;20017;-67
2021/12/08 05:32:49;;;;;;;1.88;0.47;;;;;;;;;;5049946;28;20044;-66
2021/12/08 05:35:18;;;;;;;3.38;0.77;;;;;;;;;;5050370;28;20017;-67
2021/12/08 05:37:43;;;;;;;6.97;1.30;;;;;;;;;;5050618;28;20035;-67
2021/12/08 05:40:13;;;;;;;5.15;0.75;;;;;;;;;;5050406;28;20033;-67
2021/12/08 05:42:38;;;;;;;3.95;0.93;;;;;;;;;;5049844;28;20103;-66
2021/12/08 05:45:06;;;;;;;2.17;1.33;;;;;;;;;;5050706;28;20469;-66
2021/12/08 05:47:31;;;;;;;4.38;0.82;;;;;;;;;;5050683;28;20374;-66
2021/12/08 05:49:57;;;;;;;1.27;0.75;;;;;;;;;;5048903;28;20031;-66
2021/12/08 05:52:23;;;;;;;1.42;0.68;;;;;;;;;;5049874;28;20039;-67
2021/12/08 05:54:48;;;;;;;3.00;0.50;;;;;;;;;;5050206;28;20021;-66
2021/12/08 05:57:19;;;;;;;2.35;1.10;;;;;;;;;;5050504;28;20075;-67
2021/12/08 05:59:45;;;;;;;6.25;1.67;;;;;;;;;;5050351;28;20099;-67
2021/12/08 06:02:15;;;;;;;8.23;2.80;;;;;;;;;;5049079;28;20029;-67
2021/12/08 06:04:41;;;;;;;;;;;;;;;;;;5050283;28;20033;-67
2021/12/08 06:07:07;;;;;;;2.60;0.85;;;;;;;;;;5049649;28;19909;-68
2021/12/08 06:09:33;;;;;;;4.13;0.98;;;;;;;;;;5044975;28;20024;-67
2021/12/08 06:11:59;;;;;;;8.00;1.92;;;;;;;;;;5047348;28;20067;-67
2021/12/08 06:14:31;;;;;;;1.63;0.90;;;;;;;;;;5047629;28;20453;-70
2021/12/08 06:16:57;;;;;;;7.72;1.15;;;;;;;;;;5047546;28;20060;-67
2021/12/08 06:19:22;;;;;;;1.92;1.10;;;;;;;;;;5046895;28;20056;-68
2021/12/08 06:21:49;;;;;;;2.60;1.00;;;;;;;;;;5048301;28;20113;-67
2021/12/08 06:24:15;;;;;;;0.80;0.55;;;;;;;;;;5047731;28;20028;-68
2021/12/08 06:26:40;;;;;;;3.00;0.85;;;;;;;;;;5046782;28;20021;-68
2021/12/08 06:29:07;;;;;;;5.20;0.63;;;;;;;;;;5060314;28;20008;-68
2021/12/08 06:31:35;;;;;;;0.93;0.68;;;;;;;;;;5067924;28;20469;-68
2021/12/08 06:34:01;;;;;;;3.38;1.73;;;;;;;;;;5048995;28;20029;-68
2021/12/08 06:36:28;;;;;;;6.90;1.27;;;;;;;;;;5047213;28;20135;-68
2021/12/08 06:38:54;;;;;;;1.88;0.93;;;;;;;;;;5046961;28;20051;-66
2021/12/08 06:41:35;;;;;;;3.28;1.02;;;;;;;;;;5047537;28;20060;-68
2021/12/08 06:44:07;;;;;;;1.90;1.08;;;;;;;;;;5048155;28;20040;-68
2021/12/08 06:46:33;;;;;;;4.28;1.45;;;;;;;;;;5046994;28;20029;-67
2021/12/08 06:48:59;;;;;;;6.55;0.98;;;;;;;;;;5055012;28;20039;-67
2021/12/08 06:51:30;;;;;;;3.45;0.60;;;;;;;;;;5048956;28;20033;-68
2021/12/08 06:53:58;;;;;;;0.77;0.43;;;;;;;;;;5046987;28;20033;-66
2021/12/08 06:56:26;;;;;;;5.05;1.15;;;;;;;;;;5045659;28;20441;-68
2021/12/08 06:58:52;;;;;;;1.55;0.73;;;;;;;;;;5059586;28;20036;-68
2021/12/08 07:06:48;;;;;;;6.10;1.20;;;;;;;;;;5049852;28;20032;-68
2021/12/08 07:09:21;;;;;;;5.85;1.00;;;;;;;;;;5050003;28;20048;-68
2021/12/08 07:11:47;;;;;;;3.75;1.00;;;;;;;;;;5049556;28;20052;-68
2021/12/08 07:14:12;;;;;;;5.00;1.10;;;;;;;;;;5052406;28;20551;-68
2021/12/08 07:16:39;;;;;;;6.85;1.00;;;;;;;;;;5053034;28;20025;-68
2021/12/08 07:19:22;;;;;;;4.50;1.27;;;;;;;;;;5053157;28;20025;-66
2021/12/08 07:21:48;;;;;;;2.50;0.60;;;;;;;;;;5052738;28;20021;-68
2021/12/08 07:24:22;;;;;;;5.00;2.00;;;;;;;;;;5053236;28;20024;-68
2021/12/08 07:26:49;;;;;;;6.60;1.00;;;;;;;;;;5053123;28;20024;-68
2021/12/08 07:29:15;;;;;;;5.72;1.63;;;;;;;;;;5053347;28;20079;-68
2021/12/08 07:31:42;;;;;;;14.80;1.77;;;;;;;;;;5052197;28;20404;-68
2021/12/08 07:34:13;;;;;;;3.25;1.08;;;;;;;;;;5053357;28;20029;-68
2021/12/08 07:36:40;;;;;;;4.93;0.90;;;;;;;;;;5053344;28;20056;-68
2021/12/08 07:39:07;;;;;;;3.95;1.20;;;;;;;;;;5053403;28;20028;-69
2021/12/08 07:41:35;;;;;;;2.47;0.85;;;;;;;;;;5052718;28;20112;-67
2021/12/08 07:44:06;;;;;;;7.75;1.38;;;;;;;;;;5053108;28;20024;-68
2021/12/08 07:46:33;;;;;;;7.32;1.60;;;;;;;;;;5052247;28;20477;-68
2021/12/08 07:49:00;;;;;;;10.05;2.58;;;;;;;;;;5051378;28;20037;-68
2021/12/08 07:51:31;;;;;;;16.00;2.38;;;;;;;;;;5061982;28;20031;-69
2021/12/08 07:53:57;;;;;;;3.22;1.67;;;;;;;;;;5052458;28;20045;-68
2021/12/08 07:56:23;;;;;;;6.65;1.23;;;;;;;;;;5052900;28;20517;-67
2021/12/08 07:58:50;;;;;;;7.30;1.60;;;;;;;;;;5034722;28;20079;-66
2021/12/08 08:01:18;;;;;;;2.88;1.20;;;;;;;;;;5052465;28;20025;-68
2021/12/08 08:03:44;;;;;;;3.55;0.68;;;;;;;;;;5052962;28;20014;-68
2021/12/08 08:06:14;;;;;;;4.53;1.45;;;;;;;;;;5050085;28;20036;-69
2021/12/08 08:08:39;;;;;;;6.63;2.25;;;;;;;;;;5049685;28;20253;-69
2021/12/08 08:11:07;;;;;;;2.95;1.10;;;;;;;;;;5049443;28;20103;-69
2021/12/08 08:13:32;;;;;;;6.22;1.40;;;;;;;;;;5030801;28;20335;-69
2021/12/08 08:16:05;;;;;;;6.53;1.70;;;;;;;;;;5045347;28;20111;-68
2021/12/08 08:18:30;;;;;;;10.45;1.80;;;;;;;;;;5051208;28;20043;-69
2021/12/08 08:20:57;;;;;;;5.75;0.95;;;;;;;;;;5051454;28;20533;-69
2021/12/08 08:23:24;;;;;;;9.02;1.63;;;;;;;;;;5059533;28;20021;-69
2021/12/08 08:25:50;;;;;;;11.40;1.70;;;;;;;;;;5032651;28;20039;-68
2021/12/08 08:28:16;;;;;;;11.77;1.85;;;;;;;;;;5051788;28;20032;-69
2021/12/08 08:30:47;;;;;;;8.70;1.45;;;;;;;;;;5050959;28;20017;-69
2021/12/08 08:33:13;;;;;;;12.88;1.58;;;;;;;;;;5051658;28;20470;-69
2021/12/08 08:35:43;;;;;;;9.40;1.88;;;;;;;;;;5051714;28;20021;-69
2021/12/08 08:38:11;;;;;;;16.23;2.38;;;;;;;;;;5051567;28;20021;-69
2021/12/08 08:40:38;;;;;;;7.93;1.65;;;;;;;;;;5051188;28;20088;-69
2021/12/08 08:43:04;;;;;;;7.93;1.77;;;;;;;;;;5051834;28;20028;-69
2021/12/08 08:45:33;;;;;;;2.13;1.20;;;;;;;;;;5033516;28;20103;-69
2021/12/08 08:48:00;;;;;;;12.88;1.88;;;;;;;;;;5051467;28;20593;-69
2021/12/08 08:50:29;;;;;;;7.15;1.17;;;;;;;;;;5050921;28;20028;-69
2021/12/08 08:52:55;;;;;;;7.60;1.70;;;;;;;;;;5045170;28;20021;-68
2021/12/08 08:55:25;;;;;;;10.40;1.90;;;;;;;;;;5051813;28;20025;-69
2021/12/08 08:57:51;;;;;;;8.75;0.85;;;;;;;;;;5051751;28;20579;-69
2021/12/08 09:00:38;;;;;;;4.60;1.60;;;;;;;;;;5051352;28;20029;-69
2021/12/08 09:03:06;;;;;;;3.47;1.15;;;;;;;;;;5042301;28;20092;-68
2021/12/08 09:05:43;;;;;;;10.82;4.93;;;;;;;;;;5051154;28;20017;-69
2021/12/08 09:08:09;;;;;;;2.15;1.05;;;;;;;;;;5050474;28;20053;-69
2021/12/08 09:10:37;;;;;;;3.50;1.02;;;;;;;;;;5050697;28;20419;-69
2021/12/08 09:13:10;;;;;;;4.57;1.13;;;;;;;;;;5065571;22;20037;-66
2021/12/08 09:15:37;;;;;;;7.28;1.35;;;;;;;;;;5051096;28;20096;-66
2021/12/08 09:18:08;;;;;;;3.42;0.88;;;;;;;;;;5031853;28;20420;-66
2021/12/08 09:20:43;;;;;;;16.65;2.85;;;;;;;;;;5050366;28;20025;-66
2021/12/08 09:23:15;;;;;;;5.13;1.23;;;;;;;;;;5032706;28;20481;-66
2021/12/08 09:25:45;;;;;;;12.15;1.30;;;;;;;;;;5050201;28;20021;-67
2021/12/08 09:28:13;;;;;;;7.38;0.63;;;;;;;;;;5049217;28;20021;-66
2021/12/08 09:30:47;;;;;;;8.07;1.42;;;;;;;;;;5059477;28;20417;-66
2021/12/08 09:33:18;;;;;;;5.93;1.30;;;;;;;;;;5040630;28;20402;-67
2021/12/08 09:35:48;;;;;;;8.82;2.55;;;;;;;;;;5047078;28;20423;-66
2021/12/08 09:38:29;;;;;;;2.13;1.13;;;;;;;;;;5050780;28;20048;-66
2021/12/08 09:41:04;;;;;;;6.63;1.10;;;;;;;;;;5049435;28;20031;-66
2021/12/08 09:43:33;;;;;;;3.15;1.58;;;;;;;;;;5050709;28;20100;-66
2021/12/08 09:46:05;;;;;;;3.78;0.82;;;;;;;;;;5050087;28;20032;-66
2021/12/08 09:48:30;;;;;;;10.20;2.15;;;;;;;;;;5032702;28;20041;-66
2021/12/08 09:50:57;;;;;;;5.93;1.45;;;;;;;;;;5050461;28;20017;-67
2021/12/08 09:53:22;;;;;;;6.65;1.35;;;;;;;;;;5050353;28;20112;-66
2021/12/08 09:55:49;;;;;;;2.00;1.25;;;;;;;;;;5049910;28;20227;-66
2021/12/08 09:58:15;;;;;;;11.18;2.33;;;;;;;;;;5050503;28;20052;-66
2021/12/08 10:00:46;;;;;;;6.88;2.13;;;;;;;;;;5049775;28;20473;-67
2021/12/08 10:03:14;;;;;;;7.88;1.45;;;;;;;;;;5049720;28;20028;-66
2021/12/08 10:05:41;;;;;;;7.10;1.88;;;;;;;;;;5050288;28;20464;-66
2021/12/08 10:08:07;;;;;;;5.18;1.63;;;;;;;;;;5038216;28;20032;-67
2021/12/08 10:10:32;;;;;;;1.95;0.80;;;;;;;;;;5048307;28;20028;-66
2021/12/08 10:12:58;;;;;;;5.93;1.23;;;;;;;;;;5050155;28;20733;-66
2021/12/08 10:15:24;;;;;;;6.13;0.85;;;;;;;;;;5049662;28;20037;-67
2021/12/08 10:17:50;;;;;;;6.57;0.98;;;;;;;;;;5048787;28;20032;-67
2021/12/08 10:20:27;;;;;;;7.43;1.52;;;;;;;;;;5050092;28;20024;-67
2021/12/08 10:23:11;;;;;;;4.43;1.25;;;;;;;;;;5049543;28;20027;-67
2021/12/08 10:25:39;;;;;;;3.42;1.20;;;;;;;;;;5043620;28;20025;-66
2021/12/08 10:28:10;;;;;;;8.45;1.23;;;;;;;;;;5049782;28;20425;-66
2021/12/08 10:30:41;;;;;;;5.38;0.98;;;;;;;;;;5049608;28;20100;-67
2021/12/08 10:33:12;;;;;;;5.72;1.33;;;;;;;;;;5045818;28;20017;-67
2021/12/08 10:35:45;;;;;;;4.85;1.13;;;;;;;;;;5049743;28;20064;-66
2021/12/08 10:38:11;;;;;;;1.52;0.93;;;;;;;;;;5050464;28;20025;-66
2021/12/08 10:40:36;;;;;;;7.88;1.73;;;;;;;;;;5049212;28;20416;-66
2021/12/08 10:43:14;;;;;;;6.50;1.23;;;;;;;;;;5049870;28;20025;-67
2021/12/08 10:45:40;;;;;;;7.22;1.90;;;;;;;;;;5049454;28;20021;-67
2021/12/08 10:48:07;;;;;;;9.40;1.40;;;;;;;;;;5050688;28;20102;-66
2021/12/08 10:56:05;;;;;;;10.45;1.33;;;;;;;;;;5053337;28;20032;-66
2021/12/08 10:58:31;;;;;;;2.80;0.77;;;;;;;;;;5035603;28;20021;-67
2021/12/08 11:00:59;;;;;;;13.68;2.70;;;;;;;;;;5052679;28;20040;-66
2021/12/08 11:03:28;;;;;;;5.00;2.00;;;;;;;;;;5053405;28;20014;-66
2021/12/08 11:05:55;;;;;;;8.23;1.10;;;;;;;;;;5053022;28;20305;-67
2021/12/08 11:08:20;;;;;;;10.32;1.73;;;;;;;;;;5053128;28;20017;-66
2021/12/08 11:10:51;;;;;;;10.57;1.83;;;;;;;;;;5052952;28;20461;-66
2021/12/08 11:13:18;;;;;;;6.38;2.20;;;;;;;;;;5043221;28;20382;-66
2021/12/08 11:15:43;;;;;;;2.35;1.35;;;;;;;;;;5049278;28;20743;-66
2021/12/08 11:18:17;;;;;;;3.05;1.23;;;;;;;;;;5052454;28;20037;-67
2021/12/08 11:20:48;;;;;;;8.13;1.80;;;;;;;;;;5055110;28;20056;-67
2021/12/08 11:23:17;;;;;;;3.95;1.73;;;;;;;;;;5052664;28;20489;-66
2021/12/08 11:25:45;;;;;;;6.88;1.50;;;;;;;;;;5049139;28;20480;-66
2021/12/08 11:28:36;;;;;;;7.78;2.42;;;;;;;;;;5053214;28;20100;-66
2021/12/08 11:31:08;;;;;;;2.53;0.98;;;;;;;;;;5049131;28;20089;-66
2021/12/08 11:33:36;;;;;;;2.47;1.50;;;;;;;;;;5052961;28;20027;-66
2021/12/08 11:36:06;;;;;;;10.02;1.92;;;;;;;;;;5053150;28;20020;-66
2021/12/08 11:38:31;;;;;;;5.15;1.00;;;;;;;;;;5053272;28;20017;-67
2021/12/08 11:40:56;;;;;;;10.77;1.67;;;;;;;;;;5052605;28;20096;-66
2021/12/08 11:43:27;;;;;;;9.43;1.35;;;;;;;;;;5052766;28;20428;-66
2021/12/08 11:45:52;;;;;;;7.53;1.98;;;;;;;;;;5052683;28;20028;-66
2021/12/08 11:48:22;;;;;;;2.33;1.08;;;;;;;;;;5052676;28;20029;-66
2021/12/08 11:50:47;;;;;;;13.27;1.83;;;;;;;;;;5052442;28;20028;-65
2021/12/08 11:53:19;;;;;;;8.10;1.17;;;;;;;;;;5051532;28;20033;-66
2021/12/08 11:55:44;;;;;;;6.05;1.00;;;;;;;;;;5052466;28;20199;-66
2021/12/08 11:58:11;;;;;;;10.25;1.65;;;;;;;;;;5053082;28;20549;-66
2021/12/08 12:00:39;;;;;;;5.68;1.90;;;;;;;;;;5050291;28;20401;-66
2021/12/08 12:03:09;;;;;;;5.78;1.70;;;;;;;;;;5051880;28;20025;-66
2021/12/08 12:05:39;;;;;;;8.70;1.92;;;;;;;;;;5051922;28;21637;-66
2021/12/08 12:08:05;;;;;;;11.18;1.77;;;;;;;;;;5047239;28;20036;-66
2021/12/08 12:10:32;;;;;;;5.82;1.05;;;;;;;;;;5051646;28;20021;-66
2021/12/08 12:12:58;;;;;;;8.60;2.45;;;;;;;;;;5051695;28;20033;-66
2021/12/08 12:15:24;;;;;;;2.75;0.82;;;;;;;;;;5052222;28;20021;-66
2021/12/08 12:17:49;;;;;;;6.78;1.27;;;;;;;;;;5050424;28;20025;-66
2021/12/08 12:20:27;;;;;;;7.90;1.33;;;;;;;;;;5048060;28;20017;-66
2021/12/08 12:22:58;;;;;;;8.88;1.60;;;;;;;;;;5052005;28;20025;-67
2021/12/08 12:25:29;;;;;;;2.55;0.73;;;;;;;;;;5052660;28;20039;-66
2021/12/08 12:27:57;;;;;;;4.60;1.17;;;;;;;;;;5051847;28;20017;-66
2021/12/08 12:30:29;;;;;;;15.38;1.52;;;;;;;;;;5052000;28;20025;-66
2021/12/08 12:32:55;;;;;;;11.20;1.60;;;;;;;;;;5051893;28;20020;-66
2021/12/08 12:35:20;;;;;;;13.80;1.65;;;;;;;;;;5052075;28;20024;-66
2021/12/08 12:37:46;;;;;;;14.18;1.38;;;;;;;;;;5051481;28;20139;-66
2021/12/08 12:40:14;;;;;;;11.68;2.08;;;;;;;;;;5051690;28;20056;-66
2021/12/08 12:42:45;;;;;;;18.13;2.13;;;;;;;;;;5051621;28;20013;-66
2021/12/08 12:45:12;;;;;;;6.80;1.70;;;;;;;;;;5051892;28;20025;-67
2021/12/08 12:47:38;;;;;;;9.20;1.42;;;;;;;;;;5051546;28;20044;-66
2021/12/08 12:50:11;;;;;;;20.30;1.98;;;;;;;;;;5051439;28;20025;-66
2021/12/08 12:52:38;;;;;;;10.30;1.77;;;;;;;;;;5050034;28;20482;-66
2021/12/08 12:55:08;;;;;;;10.07;2.25;;;;;;;;;;5051251;28;20040;-66
2021/12/08 12:57:53;;;;;;;6.43;1.08;;;;;;;;;;5050669;28;20021;-66
2021/12/08 13:00:25;;;;;;;10.70;1.23;;;;;;;;;;5050667;28;20028;-66
2021/12/08 13:02:50;;;;;;;12.77;2.28;;;;;;;;;;5051092;28;20041;-66
2021/12/08 13:05:18;;;;;;;8.55;1.63;;;;;;;;;;5050673;28;20091;-66
2021/12/08 13:07:56;;;;;;;3.35;0.50;;;;;;;;;;5050799;28;20041;-66
2021/12/08 13:10:29;;;;;;;3.15;1.27;;;;;;;;;;5050600;28;20538;-66
2021/12/08 13:13:07;;;;;;;6.63;2.13;;;;;;;;;;5051166;28;20025;-66
2021/12/08 13:15:33;;;;;;;7.53;1.33;;;;;;;;;;5050994;28;20029;-66
2021/12/08 13:18:01;;;;;;;4.35;1.45;;;;;;;;;;5040908;28;20051;-66
2021/12/08 13:20:27;;;;;;;2.10;1.02;;;;;;;;;;5030995;28;20045;-66
2021/12/08 13:22:58;;;;;;;11.73;1.90;;;;;;;;;;5044180;28;20085;-66
2021/12/08 13:25:25;;;;;;;3.05;1.20;;;;;;;;;;5046742;28;20016;-66
2021/12/08 13:28:07;;;;;;;3.00;1.52;;;;;;;;;;5034305;28;20021;-65
2021/12/08 13:30:32;;;;;;;17.73;1.90;;;;;;;;;;5050711;28;20036;-66
2021/12/08 13:33:07;;;;;;;16.77;2.53;;;;;;;;;;5050516;28;20258;-66
2021/12/08 13:35:37;;;;;;;13.48;2.03;;;;;;;;;;5048933;28;20032;-65
2021/12/08 13:38:03;;;;;;;7.03;3.80;;;;;;;;;;5039120;28;20408;-67
2021/12/08 13:40:43;;;;;;;11.45;1.52;;;;;;;;;;5050535;28;20039;-66
2021/12/08 13:43:09;;;;;;;8.50;1.98;;;;;;;;;;5050413;28;20032;-66
2021/12/08 13:45:41;;;;;;;5.28;1.25;;;;;;;;;;5050285;28;20021;-67
2021/12/08 13:48:07;;;;;;;13.88;2.17;;;;;;;;;;5050646;28;20086;-66
2021/12/08 13:50:34;;;;;;;18.48;2.80;;;;;;;;;;5050207;28;20063;-66
2021/12/08 13:53:06;;;;;;;17.23;2.00;;;;;;;;;;5050047;28;20389;-66
2021/12/08 13:55:32;;;;;;;9.00;2.15;;;;;;;;;;5044358;28;20103;-66
2021/12/08 13:58:07;;;;;;;13.27;1.55;;;;;;;;;;5050257;28;20101;-66
2021/12/08 14:00:36;;;;;;;10.60;2.30;;;;;;;;;;5050501;28;20027;-66
2021/12/08 14:03:02;;;;;;;10.30;2.25;;;;;;;;;;5049835;28;20481;-67
2021/12/08 14:05:29;;;;;;;15.23;1.63;;;;;;;;;;5050437;28;20028;-66
2021/12/08 14:07:56;;;;;;;9.63;1.67;;;;;;;;;;5050327;28;20048;-66
2021/12/08 14:10:26;;;;;;;17.00;1.77;;;;;;;;;;5050156;28;20028;-67
2021/12/08 14:12:53;;;;;;;6.67;1.00;;;;;;;;;;5050226;28;20024;-67
2021/12/08 14:15:21;;;;;;;16.65;1.55;;;;;;;;;;5049452;28;20271;-66
2021/12/08 14:17:48;;;;;;;6.85;1.65;;;;;;;;;;5049088;28;20123;-66
2021/12/08 14:20:33;;;;;;;4.80;1.20;;;;;;;;;;5049999;28;20031;-67
2021/12/08 14:23:02;;;;;;;5.10;1.65;;;;;;;;;;5050638;28;20028;-66
2021/12/08 14:25:34;;;;;;;2.10;1.13;;;;;;;;;;5053781;28;20017;-66
2021/12/08 14:27:59;;;;;;;6.22;0.63;;;;;;;;;;5054302;28;20021;-66
2021/12/08 14:30:24;;;;;;;10.07;1.10;;;;;;;;;;5049545;28;20017;-67
2021/12/08 14:33:03;;;;;;;6.60;1.23;;;;;;;;;;5053851;28;20024;-66
2021/12/08 14:35:28;;;;;;;9.20;1.25;;;;;;;;;;5054160;28;20040;-66
2021/12/08 14:38:11;;;;;;;5.40;1.33;;;;;;;;;;5054047;28;20021;-67
2021/12/08 14:40:37;;;;;;;5.93;1.33;;;;;;;;;;5053820;28;20017;-67
2021/12/08 14:43:02;;;;;;;6.30;1.20;;;;;;;;;;5052698;28;20029;-66
2021/12/08 14:45:27;;;;;;;18.48;2.47;;;;;;;;;;5054091;28;20357;-66
2021/12/08 14:47:53;;;;;;;9.05;1.67;;;;;;;;;;5055615;28;20024;-66
2021/12/08 14:50:23;;;;;;;7.28;1.52;;;;;;;;;;5055902;28;20066;-67
2021/12/08 14:52:49;;;;;;;;;;;;;;;;;;5054152;28;20025;-67
2021/12/08 14:55:19;;;;;;;10.02;1.50;;;;;;;;;;5053872;28;19921;-66
2021/12/08 14:57:48;;;;;;;5.37;1.50;;;;;;;;;;5054277;28;20021;-66
2021/12/08 15:00:19;;;;;;;11.07;1.70;;;;;;;;;;5051701;28;20032;-67
2021/12/08 15:02:59;;;;;;;8.05;1.65;;;;;;;;;;5053735;28;20384;-67
2021/12/08 15:05:25;;;;;;;4.50;1.33;;;;;;;;;;5053386;28;20048;-66
2021/12/08 15:07:51;;;;;;;13.82;2.28;;;;;;;;;;5052462;28;20461;-66
2021/12/08 15:10:23;;;;;;;13.52;2.20;;;;;;;;;;5053156;28;20028;-66
2021/12/08 15:12:48;;;;;;;8.63;2.22;;;;;;;;;;5053014;28;20024;-66
2021/12/08 15:15:21;;;;;;;19.70;3.65;;;;;;;;;;5053203;28;20033;-66
2021/12/08 15:17:59;;;;;;;18.60;4.68;;;;;;;;;;5052834;28;20040;-66
2021/12/08 15:20:30;;;;;;;8.20;2.22;;;;;;;;;;5052917;28;20099;-66
2021/12/08 15:22:57;;;;;;;18.60;3.15;;;;;;;;;;5053160;28;20025;-66
2021/12/08 15:25:23;;;;;;;8.32;2.58;;;;;;;;;;5052725;28;20100;-67
2021/12/08 15:27:53;;;;;;;14.00;2.38;;;;;;;;;;5052748;28;20045;-66
2021/12/08 15:30:38;;;;;;;11.20;2.38;;;;;;;;;;5052618;28;20021;-67
2021/12/08 15:33:05;;;;;;;17.92;2.88;;;;;;;;;;5038739;28;20116;-66
2021/12/08 15:35:30;;;;;;;18.98;2.63;;;;;;;;;;5051966;28;20020;-66
2021/12/08 15:37:56;;;;;;;12.80;1.85;;;;;;;;;;5050343;28;20023;-66
2021/12/08 15:40:26;;;;;;;15.38;2.95;;;;;;;;;;5052592;28;20477;-66